Time;durP1;ratioP1;P1;durP2;ratioP2;P2;SDS_P1;SDS_P2;PMS_P1;PMS_P2;Temp;Humidity;BMP_temperature;BMP_pressure;BME280_temperature;BME280_humidity;BME280_pressure;Samples;Min_cycle;Max_cycle;Signal;HPM_P1;HPM_P2
2023/03/28 00:04:02;;;;;;;5.28;2.60;;;;;;;5.36;59.39;101044.63;10386703;28;20048;-57
2023/03/28 00:09:04;;;;;;;4.72;2.47;;;;;;;5.38;58.88;101058.63;10391437;28;20044;-57
2023/03/28 00:14:07;;;;;;;7.43;2.95;;;;;;;5.35;58.96;101048.22;10388508;28;20128;-56
2023/03/28 00:19:12;;;;;;;4.32;2.30;;;;;;;5.33;59.03;101058.84;10391786;28;20119;-57
2023/03/28 00:24:16;;;;;;;5.95;3.22;;;;;;;5.24;58.91;101069.78;10389463;28;20076;-57
2023/03/28 00:29:19;;;;;;;3.75;2.55;;;;;;;5.18;59.19;101078.88;10391954;28;20524;-57
2023/03/28 00:34:22;;;;;;;5.07;2.55;;;;;;;5.00;59.62;101077.03;10396361;28;20075;-57
2023/03/28 00:39:26;;;;;;;4.70;2.90;;;;;;;4.90;60.38;101084.50;10395396;28;20580;-56
2023/03/28 00:44:50;;;;;;;6.78;2.88;;;;;;;4.78;60.42;101078.81;10393453;28;20075;-56
2023/03/28 00:50:01;;;;;;;5.18;2.60;;;;;;;4.85;60.17;101086.47;10392122;28;20053;-58
2023/03/28 00:55:06;;;;;;;4.95;3.30;;;;;;;4.65;60.15;101095.25;10390919;28;20529;-57
2023/03/28 01:00:11;;;;;;;8.23;3.60;;;;;;;4.75;60.30;101102.69;10389013;28;20048;-56
2023/03/28 01:05:13;;;;;;;5.45;2.88;;;;;;;4.78;59.93;101096.44;10393969;28;20080;-56
2023/03/28 01:10:15;;;;;;;3.90;2.70;;;;;;;4.86;59.92;101106.66;10352628;28;20377;-56
2023/03/28 01:15:17;;;;;;;5.43;3.30;;;;;;;4.92;60.38;101098.47;10346085;28;20235;-57
2023/03/28 01:20:45;;;;;;;4.45;2.45;;;;;;;4.72;59.90;101096.72;10346985;28;21693;-56
2023/03/28 01:25:58;;;;;;;6.20;2.33;;;;;;;4.73;60.08;101093.16;10366182;28;20151;-56
2023/03/28 01:31:09;;;;;;;4.53;2.20;;;;;;;4.36;60.32;101099.97;10393733;28;20063;-57
2023/03/28 01:36:47;;;;;;;4.53;2.50;;;;;;;4.46;60.71;101103.94;10392610;28;20053;-57
2023/03/28 01:42:07;;;;;;;6.28;2.83;;;;;;;4.57;60.06;101103.47;10391305;28;20040;-56
2023/03/28 01:47:13;;;;;;;4.78;2.80;;;;;;;4.68;60.29;101095.97;10392981;28;21522;-56
2023/03/28 01:52:36;;;;;;;5.55;3.08;;;;;;;4.76;59.73;101103.56;10377391;28;20056;-56
2023/03/28 01:57:47;;;;;;;4.88;2.30;;;;;;;4.48;59.84;101110.00;10394685;28;20614;-56
2023/03/28 02:03:01;;;;;;;5.25;2.40;;;;;;;4.68;59.36;101105.66;10389869;28;20493;-58
2023/03/28 02:08:09;;;;;;;4.88;2.20;;;;;;;4.78;59.10;101117.53;10391402;28;20587;-56
2023/03/28 02:13:15;;;;;;;6.47;2.65;;;;;;;4.76;58.45;101109.69;10389353;28;20719;-55
2023/03/28 02:18:28;;;;;;;6.63;2.50;;;;;;;4.75;58.84;101112.41;10390124;28;20048;-56
2023/03/28 02:23:46;;;;;;;5.43;2.95;;;;;;;4.82;58.41;101111.22;10388267;28;20829;-55
2023/03/28 02:28:51;;;;;;;5.82;2.88;;;;;;;4.64;58.80;101099.66;10394425;28;20304;-56
2023/03/28 02:33:53;;;;;;;6.28;2.45;;;;;;;4.67;59.00;101115.38;10394798;28;20614;-56
2023/03/28 02:38:55;;;;;;;4.10;2.67;;;;;;;4.64;59.54;101104.06;10392952;28;20059;-56
2023/03/28 02:44:18;;;;;;;6.07;3.08;;;;;;;4.82;58.82;101108.59;10383699;28;20167;-56
2023/03/28 02:49:55;;;;;;;4.45;1.98;;;;;;;4.84;59.40;101103.25;10384163;28;20583;-57
2023/03/28 02:55:06;;;;;;;8.88;2.20;;;;;;;4.76;59.33;101103.56;10387212;28;20925;-57
2023/03/28 03:00:15;;;;;;;7.55;2.67;;;;;;;4.77;59.61;101106.16;10385854;28;20047;-56
2023/03/28 03:05:21;;;;;;;5.50;2.85;;;;;;;4.80;59.57;101089.31;10386502;28;20126;-56
2023/03/28 03:10:23;;;;;;;8.02;3.53;;;;;;;4.77;59.73;101100.00;10382593;28;20060;-56
2023/03/28 03:15:24;;;;;;;5.65;3.28;;;;;;;4.76;59.79;101098.28;10382038;28;20770;-56
2023/03/28 03:20:32;;;;;;;7.20;2.80;;;;;;;4.78;59.84;101097.28;10386488;28;20102;-56
2023/03/28 03:25:34;;;;;;;4.55;2.80;;;;;;;4.73;59.42;101087.88;10371294;28;20072;-56
2023/03/28 03:30:36;;;;;;;7.22;3.65;;;;;;;4.72;60.05;101096.72;10384032;28;20071;-56
2023/03/28 03:35:40;;;;;;;8.02;4.05;;;;;;;4.66;60.26;101089.06;10386280;28;20057;-56
2023/03/28 03:40:42;;;;;;;6.22;3.47;;;;;;;4.63;60.39;101086.56;10385940;28;20712;-55
2023/03/28 03:45:44;;;;;;;6.18;3.60;;;;;;;4.68;60.53;101098.59;10382462;28;20187;-56
2023/03/28 03:50:46;;;;;;;6.80;3.53;;;;;;;4.67;60.38;101093.38;10382034;28;20107;-56
2023/03/28 03:55:48;;;;;;;8.02;3.83;;;;;;;4.64;60.15;101104.06;10383503;28;20976;-56
2023/03/28 04:00:50;;;;;;;10.70;4.28;;;;;;;4.63;60.26;101112.94;10384295;28;20060;-56
2023/03/28 04:05:53;;;;;;;6.72;3.92;;;;;;;4.64;60.47;101111.97;10387632;28;20056;-56
2023/03/28 04:10:55;;;;;;;8.80;4.22;;;;;;;4.63;60.39;101112.94;10389054;28;20057;-57
2023/03/28 04:15:56;;;;;;;10.32;4.60;;;;;;;4.62;60.35;101119.13;10378894;28;21297;-57
2023/03/28 04:21:01;;;;;;;5.90;3.67;;;;;;;4.60;60.49;101120.03;10389225;28;20616;-57
2023/03/28 04:26:02;;;;;;;8.23;4.45;;;;;;;4.51;60.77;101138.03;10391558;28;20045;-56
2023/03/28 04:31:04;;;;;;;6.75;4.30;;;;;;;4.48;60.63;101146.06;10392039;28;20056;-56
2023/03/28 04:36:08;;;;;;;8.80;4.95;;;;;;;4.47;60.98;101152.25;10385734;28;20403;-58
2023/03/28 04:41:10;;;;;;;8.75;4.40;;;;;;;4.40;61.26;101149.84;10396279;28;20847;-57
2023/03/28 04:46:12;;;;;;;9.52;4.25;;;;;;;4.40;60.94;101146.38;10398470;28;20057;-58
2023/03/28 04:51:13;;;;;;;10.40;4.55;;;;;;;4.23;61.58;101152.31;10399069;28;20132;-57
2023/03/28 04:56:15;;;;;;;8.02;4.32;;;;;;;4.34;61.52;101154.50;10397495;28;20139;-57
2023/03/28 05:01:17;;;;;;;7.13;4.60;;;;;;;4.40;61.35;101159.56;10395127;28;20135;-57
2023/03/28 05:06:18;;;;;;;6.05;4.50;;;;;;;4.28;61.60;101178.47;10392658;28;20113;-57
2023/03/28 05:11:20;;;;;;;7.18;4.22;;;;;;;4.37;61.63;101180.78;10395815;28;20384;-58
2023/03/28 05:16:21;;;;;;;10.65;4.80;;;;;;;4.42;61.92;101190.19;10393062;28;20746;-58
2023/03/28 05:21:23;;;;;;;6.30;4.90;;;;;;;4.40;61.29;101184.13;10393422;28;20053;-57
2023/03/28 05:26:26;;;;;;;8.43;4.60;;;;;;;4.43;61.44;101188.44;10389030;28;20049;-57
2023/03/28 05:31:29;;;;;;;7.40;4.97;;;;;;;4.43;61.58;101196.34;10391369;28;20049;-57
2023/03/28 05:36:31;;;;;;;9.25;4.45;;;;;;;4.34;61.67;101204.59;10390317;28;20048;-57
2023/03/28 05:41:32;;;;;;;9.63;4.65;;;;;;;4.50;61.56;101208.34;10392414;28;20846;-57
2023/03/28 05:46:34;;;;;;;9.20;3.97;;;;;;;4.42;61.36;101203.38;10391767;28;20116;-57
2023/03/28 05:51:38;;;;;;;7.00;4.03;;;;;;;4.48;61.65;101207.53;10396077;28;20101;-57
2023/03/28 05:56:39;;;;;;;10.02;4.25;;;;;;;4.58;61.63;101208.06;10394375;28;20053;-61
2023/03/28 06:01:41;;;;;;;9.25;4.55;;;;;;;4.50;61.83;101218.88;10390943;28;20052;-57
2023/03/28 06:06:44;;;;;;;9.35;4.40;;;;;;;4.64;61.52;101214.84;10394131;28;20183;-57
2023/03/28 06:11:45;;;;;;;8.90;4.93;;;;;;;4.74;61.15;101217.06;10391447;28;20085;-57
2023/03/28 06:16:47;;;;;;;10.70;4.63;;;;;;;4.83;60.70;101223.72;10392378;28;20055;-56
2023/03/28 06:21:50;;;;;;;8.60;4.70;;;;;;;4.90;60.69;101230.47;10393840;28;20052;-57
2023/03/28 06:26:54;;;;;;;9.07;4.50;;;;;;;4.72;60.41;101223.31;10388600;28;20497;-57
2023/03/28 06:31:55;;;;;;;9.00;4.78;;;;;;;4.68;60.20;101237.53;10394095;28;22253;-57
2023/03/28 06:37:00;;;;;;;10.80;4.10;;;;;;;4.88;60.14;101234.06;10393936;28;20052;-57
2023/03/28 06:42:02;;;;;;;8.00;5.00;;;;;;;5.03;61.33;101240.50;10382131;28;20509;-59
2023/03/28 06:47:04;;;;;;;11.50;4.60;;;;;;;5.21;61.20;101229.19;10390451;28;20072;-59
2023/03/28 06:52:06;;;;;;;6.93;3.90;;;;;;;5.40;59.56;101242.44;10394865;28;20048;-61
2023/03/28 06:57:08;;;;;;;5.70;4.07;;;;;;;5.80;58.34;101250.44;10391783;28;20056;-59
2023/03/28 07:02:10;;;;;;;8.90;3.75;;;;;;;6.07;57.30;101251.00;10393980;28;20061;-59
2023/03/28 07:07:12;;;;;;;4.88;3.65;;;;;;;6.29;56.70;101258.81;10395526;28;20198;-59
2023/03/28 07:12:15;;;;;;;8.98;4.15;;;;;;;6.44;55.83;101264.28;10390399;28;20091;-60
2023/03/28 07:17:16;;;;;;;10.88;5.80;;;;;;;5.96;56.67;101255.84;10391471;28;20057;-60
2023/03/28 07:22:18;;;;;;;6.57;3.65;;;;;;;6.37;56.72;101263.72;10392245;28;20057;-58
2023/03/28 07:27:19;;;;;;;5.88;3.38;;;;;;;6.66;55.27;101254.38;10391111;28;20052;-66
2023/03/28 07:32:23;;;;;;;7.57;4.03;;;;;;;6.86;54.03;101273.75;10395238;28;20128;-66
2023/03/28 07:37:24;;;;;;;11.50;4.05;;;;;;;6.88;52.45;101279.84;10394121;28;20492;-59
2023/03/28 07:42:26;;;;;;;9.20;3.55;;;;;;;6.40;53.29;101282.09;10383515;28;20048;-60
2023/03/28 07:47:29;;;;;;;7.85;2.35;;;;;;;6.76;53.40;101276.00;10400049;28;20052;-59
2023/03/28 07:52:30;;;;;;;7.05;2.80;;;;;;;7.20;52.09;101282.69;10387998;28;20071;-61
2023/03/28 07:57:32;;;;;;;9.23;3.40;;;;;;;7.54;52.07;101275.69;10388138;28;20606;-59
2023/03/28 08:02:33;;;;;;;11.00;3.03;;;;;;;7.76;50.58;101275.41;10388817;28;24851;-60
2023/03/28 08:07:35;;;;;;;5.22;2.47;;;;;;;7.71;50.31;101278.28;10391121;28;20053;-60
2023/03/28 08:12:37;;;;;;;4.10;1.98;;;;;;;8.04;49.03;101285.41;10394589;28;20055;-60
2023/03/28 08:17:39;;;;;;;4.63;1.55;;;;;;;8.32;48.00;101289.25;10388773;28;20921;-61
2023/03/28 08:22:41;;;;;;;5.32;1.85;;;;;;;8.31;47.20;101292.81;10390770;28;20417;-60
2023/03/28 08:27:45;;;;;;;4.40;1.57;;;;;;;8.33;46.74;101288.28;10388062;28;20057;-60
2023/03/28 08:32:48;;;;;;;7.15;2.08;;;;;;;8.54;46.46;101293.38;10390637;28;20131;-61
2023/03/28 08:37:50;;;;;;;7.45;2.15;;;;;;;8.67;46.06;101299.72;10390370;28;20060;-60
2023/03/28 08:42:59;;;;;;;5.75;1.38;;;;;;;8.84;45.10;101297.00;10386575;28;20048;-61
2023/03/28 08:48:23;;;;;;;6.65;2.22;;;;;;;9.05;44.57;101301.16;10394569;28;20045;-61
2023/03/28 08:53:36;;;;;;;5.05;1.33;;;;;;;9.18;43.12;101299.50;10397253;28;20049;-62
2023/03/28 08:59:05;;;;;;;2.67;1.20;;;;;;;9.61;40.73;101291.66;10397045;28;20784;-61
2023/03/28 09:04:35;;;;;;;3.97;1.52;;;;;;;9.91;42.73;101294.25;10397189;28;20059;-61
2023/03/28 09:09:44;;;;;;;8.25;2.05;;;;;;;9.83;42.00;101287.69;10398665;28;20143;-60
2023/03/28 09:15:10;;;;;;;5.40;1.40;;;;;;;9.79;41.23;101288.81;10395516;28;20080;-62
2023/03/28 09:20:50;;;;;;;5.05;1.90;;;;;;;9.64;41.60;101285.31;10382773;28;20175;-60
2023/03/28 09:26:00;;;;;;;4.18;1.40;;;;;;;10.20;40.47;101296.94;10350172;28;20048;-63
2023/03/28 09:31:07;;;;;;;6.18;1.25;;;;;;;9.58;41.58;101285.66;10382241;28;20049;-62
2023/03/28 09:36:19;;;;;;;3.25;1.15;;;;;;;9.80;39.33;101288.72;10372843;28;20052;-64
2023/03/28 09:41:45;;;;;;;2.83;0.98;;;;;;;10.38;36.07;101281.63;10389421;28;20102;-63
2023/03/28 09:46:49;;;;;;;3.45;0.75;;;;;;;10.96;34.83;101274.38;10389467;28;20071;-63
2023/03/28 09:51:54;;;;;;;6.63;0.98;;;;;;;11.27;35.68;101275.00;10384238;28;20060;-63
2023/03/28 09:57:03;;;;;;;3.47;1.10;;;;;;;11.57;35.54;101268.53;10357264;28;20494;-65
2023/03/28 10:02:24;;;;;;;5.28;1.52;;;;;;;11.94;35.04;101267.84;10376974;28;20204;-69
2023/03/28 10:07:28;;;;;;;5.82;1.23;;;;;;;12.51;33.40;101264.63;10385830;28;20048;-65
2023/03/28 10:12:34;;;;;;;4.65;1.20;;;;;;;13.69;32.35;101250.53;10378052;28;20249;-64
2023/03/28 10:17:37;;;;;;;3.95;1.17;;;;;;;14.37;32.94;101248.72;10344567;28;20186;-63
2023/03/28 10:22:39;;;;;;;2.97;0.70;;;;;;;17.43;26.17;101246.44;10378936;28;20045;-64
2023/03/28 10:27:41;;;;;;;1.35;0.47;;;;;;;19.48;22.77;101241.75;10376907;28;20057;-63
2023/03/28 10:32:42;;;;;;;3.80;1.02;;;;;;;17.56;24.51;101241.59;10372285;28;20132;-63
2023/03/28 10:37:47;;;;;;;3.58;1.00;;;;;;;16.09;26.04;101237.91;10395469;28;20428;-64
2023/03/28 10:42:51;;;;;;;4.72;0.80;;;;;;;16.77;26.26;101232.72;10375756;28;20122;-63
2023/03/28 10:47:57;;;;;;;2.53;0.60;;;;;;;17.52;25.15;101237.53;10390362;28;20063;-64
2023/03/28 10:53:19;;;;;;;1.85;0.47;;;;;;;18.24;23.33;101237.84;10365888;28;21118;-64
2023/03/28 10:58:41;;;;;;;3.25;1.10;;;;;;;18.34;25.06;101243.19;10382717;28;20059;-64
2023/03/28 11:03:55;;;;;;;3.83;0.60;;;;;;;22.89;18.80;101240.50;10393716;28;20698;-63
2023/03/28 11:09:18;;;;;;;2.35;0.63;;;;;;;20.87;20.08;101227.16;10381289;28;20055;-65
2023/03/28 11:14:38;;;;;;;2.88;0.90;;;;;;;19.00;21.91;101228.56;10389317;28;20045;-63
2023/03/28 11:20:17;;;;;;;4.05;0.80;;;;;;;18.93;22.05;101219.41;10386322;28;20048;-62
2023/03/28 11:25:34;;;;;;;4.85;0.93;;;;;;;18.12;22.96;101215.66;10388214;28;20201;-65
2023/03/28 11:30:39;;;;;;;2.75;1.00;;;;;;;17.92;24.34;101206.78;10376397;28;20109;-65
2023/03/28 11:35:49;;;;;;;4.35;0.98;;;;;;;17.99;24.07;101202.50;10394825;28;20744;-63
2023/03/28 11:40:56;;;;;;;4.50;1.08;;;;;;;18.19;23.93;101199.72;10387169;28;20079;-61
2023/03/28 11:46:06;;;;;;;3.40;0.90;;;;;;;18.87;23.68;101191.19;10374209;28;20056;-62
2023/03/28 11:51:17;;;;;;;3.45;0.85;;;;;;;22.55;19.47;101175.81;10380029;28;20049;-63
2023/03/28 11:56:37;;;;;;;6.28;1.35;;;;;;;25.04;17.62;101179.00;10378902;28;20139;-65
2023/03/28 12:01:43;;;;;;;1.85;0.68;;;;;;;25.79;15.96;101159.41;10381604;28;20444;-65
2023/03/28 12:07:07;;;;;;;3.90;0.90;;;;;;;25.05;16.33;101165.19;10372310;28;20130;-65
2023/03/28 12:12:14;;;;;;;2.05;0.57;;;;;;;25.46;16.08;101154.63;10361344;28;20052;-63
2023/03/28 12:17:24;;;;;;;3.67;1.15;;;;;;;24.70;16.41;101139.78;10371690;28;20140;-63
2023/03/28 12:22:39;;;;;;;2.53;0.77;;;;;;;23.76;16.59;101133.22;10387285;28;20059;-63
2023/03/28 12:27:44;;;;;;;1.25;0.70;;;;;;;25.89;15.15;101124.44;10394743;28;20076;-63
2023/03/28 12:33:11;;;;;;;1.80;0.77;;;;;;;27.14;15.03;101115.81;10392633;28;20109;-64
2023/03/28 12:38:31;;;;;;;7.60;4.28;;;;;;;28.95;13.52;101106.75;10390999;28;20064;-64
2023/03/28 12:43:54;;;;;;;2.92;0.60;;;;;;;29.31;12.25;101094.19;10392912;28;20059;-61
2023/03/28 12:49:11;;;;;;;3.47;1.08;;;;;;;29.88;12.02;101100.25;10390211;28;20048;-65
2023/03/28 12:54:13;;;;;;;5.03;1.25;;;;;;;28.26;12.73;101101.97;10391768;28;20663;-64
2023/03/28 12:59:37;;;;;;;4.72;0.80;;;;;;;27.94;13.58;101092.88;10394494;28;20595;-65
2023/03/28 13:04:58;;;;;;;3.90;0.70;;;;;;;28.64;12.83;101086.56;10393422;28;20181;-63
2023/03/28 13:10:13;;;;;;;2.20;0.47;;;;;;;28.87;12.42;101081.31;10400105;28;20075;-64
2023/03/28 13:15:15;;;;;;;2.45;0.47;;;;;;;27.89;12.77;101070.81;10379875;28;20053;-62
2023/03/28 13:20:16;;;;;;;2.92;0.98;;;;;;;26.35;13.93;101066.47;10384523;28;20060;-62
2023/03/28 13:25:19;;;;;;;1.73;0.43;;;;;;;23.65;16.17;101060.34;10385270;28;20276;-64
2023/03/28 13:30:30;;;;;;;2.17;0.68;;;;;;;22.05;17.41;101051.34;10386619;28;20229;-63
2023/03/28 13:35:48;;;;;;;2.63;0.60;;;;;;;20.78;18.59;101045.91;10389989;28;20101;-64
2023/03/28 13:40:53;;;;;;;2.63;0.52;;;;;;;19.85;19.50;101038.06;10390231;28;20191;-62
2023/03/28 13:46:00;;;;;;;3.05;0.82;;;;;;;18.87;20.65;101032.03;10391573;28;20544;-62
2023/03/28 13:51:10;;;;;;;3.97;0.85;;;;;;;18.40;21.19;101018.03;10387734;28;20100;-62
2023/03/28 13:56:28;;;;;;;3.15;1.23;;;;;;;18.12;22.25;101010.03;10392340;28;20049;-62
2023/03/28 14:01:54;;;;;;;2.03;0.63;;;;;;;18.21;22.01;101001.03;10394167;28;20644;-63
2023/03/28 14:06:57;;;;;;;3.80;1.90;;;;;;;17.55;23.32;101004.88;10387928;28;20170;-63
2023/03/28 14:12:03;;;;;;;2.28;0.80;;;;;;;17.23;23.85;100990.88;10388575;28;20133;-66
2023/03/28 14:17:07;;;;;;;2.75;1.25;;;;;;;16.96;23.95;100973.75;10400375;28;20040;-63
2023/03/28 14:22:15;;;;;;;3.25;0.85;;;;;;;16.79;23.95;100971.78;10396538;28;20061;-62
2023/03/28 14:27:40;;;;;;;3.20;0.90;;;;;;;16.91;23.62;100970.63;10395907;28;20060;-62
2023/03/28 14:33:06;;;;;;;2.85;1.08;;;;;;;16.99;23.94;100963.66;10388134;28;20063;-61
2023/03/28 14:38:13;;;;;;;2.75;0.95;;;;;;;16.11;24.69;100958.47;10389110;28;21255;-63
2023/03/28 14:43:35;;;;;;;2.45;1.05;;;;;;;15.72;24.60;100951.25;10388656;28;20132;-63
2023/03/28 14:48:40;;;;;;;3.08;1.42;;;;;;;15.26;25.43;100950.88;10392794;28;20040;-63
2023/03/28 14:53:46;;;;;;;4.25;1.48;;;;;;;14.75;25.66;100952.66;10387705;28;20054;-63
2023/03/28 14:58:49;;;;;;;3.40;1.33;;;;;;;14.64;26.09;100940.19;10341293;28;20441;-62
2023/03/28 15:04:05;;;;;;;6.32;1.10;;;;;;;14.06;25.97;100940.63;10373577;28;20140;-63
2023/03/28 15:09:22;;;;;;;4.25;1.60;;;;;;;14.07;26.48;100931.63;10379026;28;21051;-63
2023/03/28 15:14:36;;;;;;;3.20;1.23;;;;;;;13.85;26.85;100907.66;10387968;28;20610;-62
2023/03/28 15:19:39;;;;;;;3.30;1.08;;;;;;;13.60;27.63;100909.69;10402086;28;20279;-62
2023/03/28 15:24:43;;;;;;;5.45;1.48;;;;;;;13.14;28.28;100897.41;10387177;28;20053;-62
2023/03/28 15:29:44;;;;;;;4.75;1.48;;;;;;;13.18;28.83;100901.50;10377175;28;20049;-61
2023/03/28 15:34:55;;;;;;;3.92;1.90;;;;;;;12.98;28.86;100887.94;10377660;28;20099;-63
2023/03/28 15:40:20;;;;;;;3.35;1.17;;;;;;;12.85;29.31;100873.88;10380877;28;20126;-61
2023/03/28 15:45:37;;;;;;;3.10;1.42;;;;;;;12.61;29.27;100871.34;10382635;28;20095;-60
2023/03/28 15:50:43;;;;;;;4.65;2.25;;;;;;;12.45;29.92;100871.72;10373541;28;20056;-63
2023/03/28 15:55:47;;;;;;;2.67;1.48;;;;;;;12.21;30.27;100853.97;10383103;28;20803;-62
2023/03/28 16:00:51;;;;;;;4.87;1.80;;;;;;;12.15;31.19;100854.47;10381988;28;20045;-61
2023/03/28 16:06:10;;;;;;;5.47;1.58;;;;;;;12.21;30.96;100853.97;10394200;28;20045;-61
2023/03/28 16:11:25;;;;;;;6.50;1.65;;;;;;;11.90;31.47;100834.13;10385629;28;20056;-61
2023/03/28 16:16:28;;;;;;;3.97;2.45;;;;;;;11.83;31.46;100828.41;10396866;28;20090;-61
2023/03/28 16:21:30;;;;;;;5.35;1.88;;;;;;;11.92;32.16;100827.69;10387245;28;20053;-62
2023/03/28 16:26:33;;;;;;;2.88;1.67;;;;;;;11.66;32.14;100822.56;10390577;28;20101;-60
2023/03/28 16:31:34;;;;;;;3.92;1.98;;;;;;;11.39;32.73;100811.28;10345910;28;21643;-60
2023/03/28 16:36:37;;;;;;;4.57;1.80;;;;;;;11.36;33.17;100803.53;10346386;28;20053;-62
2023/03/28 16:41:39;;;;;;;2.45;1.40;;;;;;;11.38;33.34;100806.91;10363273;28;20064;-62
2023/03/28 16:46:41;;;;;;;3.38;1.60;;;;;;;11.25;33.05;100797.19;10377428;28;20053;-61
2023/03/28 16:51:43;;;;;;;7.68;1.90;;;;;;;11.03;33.61;100791.75;10380531;28;20075;-61
2023/03/28 16:56:45;;;;;;;8.05;3.00;;;;;;;10.96;33.87;100775.38;10392710;28;20258;-61
2023/03/28 17:01:47;;;;;;;5.20;1.63;;;;;;;10.97;33.79;100777.06;10369080;28;20084;-61
2023/03/28 17:06:49;;;;;;;3.60;1.73;;;;;;;10.84;34.02;100760.28;10384693;28;20055;-60
2023/03/28 17:11:51;;;;;;;4.47;1.80;;;;;;;10.80;34.60;100749.03;10380373;28;20049;-59
2023/03/28 17:16:53;;;;;;;3.78;1.70;;;;;;;10.66;34.37;100754.50;10380257;28;20061;-60
2023/03/28 17:21:55;;;;;;;3.40;1.98;;;;;;;10.54;34.32;100751.78;10368448;28;20064;-61
2023/03/28 17:26:57;;;;;;;4.22;1.58;;;;;;;10.44;34.59;100726.78;10366000;28;20056;-60
2023/03/28 17:31:58;;;;;;;3.97;1.65;;;;;;;10.40;34.68;100735.94;10382242;28;20053;-61
2023/03/28 17:37:00;;;;;;;6.07;2.25;;;;;;;10.30;35.35;100724.22;10378968;28;20268;-62
2023/03/28 17:42:01;;;;;;;7.15;3.60;;;;;;;10.23;34.43;100724.66;10374398;28;20053;-61
2023/03/28 17:47:03;;;;;;;6.53;5.30;;;;;;;10.20;34.81;100740.84;10380153;28;21388;-61
2023/03/28 17:52:05;;;;;;;27.02;25.10;;;;;;;10.21;35.02;100725.75;10370888;28;20525;-62
2023/03/28 17:57:07;;;;;;;27.83;25.08;;;;;;;10.20;34.90;100724.03;10364126;28;20516;-62
2023/03/28 18:02:10;;;;;;;26.50;24.25;;;;;;;10.22;35.10;100728.31;10378278;28;20057;-61
2023/03/28 18:07:12;;;;;;;5.07;2.20;;;;;;;10.21;34.52;100726.59;10394443;28;20171;-62
2023/03/28 18:12:17;;;;;;;5.75;3.67;;;;;;;10.19;34.36;100735.63;10383276;28;20159;-62
2023/03/28 18:17:19;;;;;;;2.75;2.17;;;;;;;10.07;34.67;100729.38;10385112;28;20053;-60
2023/03/28 18:22:20;;;;;;;4.32;3.20;;;;;;;10.06;35.03;100722.38;10382151;28;20571;-61
2023/03/28 18:27:24;;;;;;;5.53;3.00;;;;;;;10.08;34.50;100734.59;10372752;28;20060;-61
2023/03/28 18:32:26;;;;;;;5.10;2.83;;;;;;;10.01;34.70;100724.50;10373330;28;20049;-60
2023/03/28 18:37:28;;;;;;;5.03;3.05;;;;;;;9.98;34.99;100716.72;10383565;28;20055;-61
2023/03/28 18:42:30;;;;;;;6.53;6.03;;;;;;;10.01;35.43;100725.38;10380321;28;20056;-60
2023/03/28 18:47:36;;;;;;;5.05;2.33;;;;;;;10.01;35.36;100721.84;10376333;28;20087;-61
2023/03/28 18:52:38;;;;;;;4.95;3.05;;;;;;;9.99;35.32;100715.78;10392892;28;20528;-61
2023/03/28 18:57:39;;;;;;;3.70;2.08;;;;;;;10.02;34.77;100715.56;10386883;28;20048;-61
2023/03/28 19:02:41;;;;;;;3.92;2.08;;;;;;;9.94;35.65;100724.09;10378435;28;20102;-60
2023/03/28 19:07:44;;;;;;;4.18;2.33;;;;;;;9.91;35.88;100717.16;10379069;28;20048;-61
2023/03/28 19:12:45;;;;;;;3.88;1.88;;;;;;;9.90;35.88;100717.28;10385114;28;20193;-61
2023/03/28 19:17:47;;;;;;;3.60;2.08;;;;;;;9.83;36.22;100708.91;10383980;28;20195;-61
2023/03/28 19:22:49;;;;;;;5.28;1.83;;;;;;;9.88;36.49;100704.09;10383017;28;20191;-61
2023/03/28 19:27:51;;;;;;;6.10;1.58;;;;;;;9.90;36.51;100707.47;10382346;28;20127;-60
2023/03/28 19:32:52;;;;;;;5.97;2.17;;;;;;;9.87;36.53;100697.06;10388913;28;20048;-61
2023/03/28 19:37:54;;;;;;;3.55;1.90;;;;;;;9.87;37.14;100688.25;10382560;28;20049;-61
2023/03/28 19:42:57;;;;;;;6.30;2.15;;;;;;;9.89;38.25;100684.53;10389619;28;21497;-56
2023/03/28 19:47:59;;;;;;;4.30;1.70;;;;;;;9.93;36.86;100694.94;10389955;28;20041;-61
2023/03/28 19:53:01;;;;;;;3.28;1.90;;;;;;;9.84;37.35;100689.31;10363844;28;20056;-60
2023/03/28 19:58:07;;;;;;;6.05;2.50;;;;;;;9.85;36.78;100693.66;10392746;28;20437;-60
2023/03/28 20:03:10;;;;;;;3.08;1.92;;;;;;;9.82;37.35;100688.56;10372100;28;20049;-59
2023/03/28 20:08:12;;;;;;;3.08;2.75;;;;;;;9.73;37.60;100683.91;10393074;28;20143;-60
2023/03/28 20:13:14;;;;;;;3.95;2.38;;;;;;;9.76;37.83;100675.72;10401556;28;20508;-60
2023/03/28 20:18:20;;;;;;;3.70;2.65;;;;;;;9.81;37.78;100688.69;10389510;28;20037;-60
2023/03/28 20:23:24;;;;;;;4.28;2.58;;;;;;;9.75;37.94;100702.41;10391773;28;20583;-60
2023/03/28 20:28:31;;;;;;;6.95;3.17;;;;;;;9.80;38.08;100690.47;10396003;28;20049;-61
2023/03/28 20:33:34;;;;;;;4.55;2.40;;;;;;;9.79;38.18;100694.09;10392346;28;20053;-61
2023/03/28 20:38:36;;;;;;;4.45;2.20;;;;;;;9.83;37.92;100700.91;10382930;28;20060;-61
2023/03/28 20:43:39;;;;;;;4.22;2.42;;;;;;;9.76;37.82;100688.13;10387036;28;20199;-61
2023/03/28 20:48:45;;;;;;;4.68;2.22;;;;;;;9.75;38.31;100670.50;10394414;28;20148;-61
2023/03/28 20:53:49;;;;;;;7.63;3.08;;;;;;;9.85;38.18;100682.19;10396409;28;20676;-60
2023/03/28 20:58:51;;;;;;;3.53;2.10;;;;;;;9.80;38.44;100677.16;10389197;28;20056;-60
2023/03/28 21:03:56;;;;;;;2.75;1.88;;;;;;;9.84;38.99;100680.50;10395550;28;20337;-61
2023/03/28 21:09:01;;;;;;;3.60;1.60;;;;;;;9.67;40.24;100671.88;10392569;28;20048;-61
2023/03/28 21:14:05;;;;;;;3.35;1.58;;;;;;;9.67;41.53;100671.06;10389026;28;20067;-61
2023/03/28 21:19:07;;;;;;;3.00;1.35;;;;;;;9.52;42.35;100662.34;10382112;28;20076;-62
2023/03/28 21:24:09;;;;;;;4.10;1.63;;;;;;;9.50;43.64;100657.13;10389422;28;20892;-60
2023/03/28 21:29:11;;;;;;;2.50;1.45;;;;;;;9.48;43.92;100645.72;10378229;28;20057;-61
2023/03/28 21:34:12;;;;;;;2.78;1.13;;;;;;;9.53;44.29;100635.66;10408673;28;20061;-60
2023/03/28 21:39:14;;;;;;;2.25;1.13;;;;;;;9.48;45.09;100627.13;10373160;28;20500;-60
2023/03/28 21:44:15;;;;;;;4.72;1.20;;;;;;;9.51;44.66;100626.91;10383338;28;20056;-61
2023/03/28 21:49:18;;;;;;;2.22;1.10;;;;;;;9.43;44.82;100628.41;10355908;28;21882;-61
2023/03/28 21:54:19;;;;;;;3.80;1.48;;;;;;;9.51;45.03;100628.72;10379216;28;20112;-62
2023/03/28 21:59:21;;;;;;;3.08;1.30;;;;;;;9.54;44.56;100632.00;10367632;28;20793;-61
2023/03/28 22:04:22;;;;;;;1.50;1.08;;;;;;;9.57;44.74;100638.09;10385851;28;20064;-60
2023/03/28 22:09:24;;;;;;;2.35;1.10;;;;;;;9.50;44.89;100635.88;10380048;28;20048;-61
2023/03/28 22:14:26;;;;;;;2.75;1.40;;;;;;;9.55;46.02;100622.25;10383102;28;20681;-65
2023/03/28 22:19:29;;;;;;;3.38;0.93;;;;;;;9.64;47.17;100618.09;10379600;28;20485;-60
2023/03/28 22:24:32;;;;;;;1.90;1.00;;;;;;;9.62;47.16;100622.66;10384929;28;20550;-61
2023/03/28 22:29:34;;;;;;;2.95;1.40;;;;;;;9.57;47.87;100620.31;10379956;28;20052;-61
2023/03/28 22:34:36;;;;;;;2.38;1.10;;;;;;;9.18;50.41;100596.44;10384068;28;20598;-60
2023/03/28 22:39:39;;;;;;;1.92;0.95;;;;;;;9.18;51.58;100588.47;10380857;28;20136;-60
2023/03/28 22:44:41;;;;;;;1.75;0.85;;;;;;;9.16;51.70;100593.03;10382279;28;20847;-61
2023/03/28 22:49:44;;;;;;;2.00;1.00;;;;;;;9.19;52.12;100598.13;10383112;28;20140;-61
2023/03/28 22:54:46;;;;;;;1.75;0.93;;;;;;;9.23;51.49;100600.56;10385846;28;20177;-64
2023/03/28 22:59:51;;;;;;;1.88;0.88;;;;;;;9.18;51.78;100587.63;10387339;28;20700;-61
2023/03/28 23:04:53;;;;;;;1.90;1.23;;;;;;;9.24;51.63;100591.66;10398228;28;20049;-61
2023/03/28 23:09:54;;;;;;;3.15;1.35;;;;;;;9.18;51.21;100582.31;10373724;28;20052;-60
2023/03/28 23:14:56;;;;;;;1.60;1.00;;;;;;;9.17;51.25;100592.09;10378736;28;20081;-61
2023/03/28 23:19:59;;;;;;;2.53;0.85;;;;;;;9.12;51.70;100578.25;10381153;28;20106;-61
2023/03/28 23:25:01;;;;;;;1.63;1.20;;;;;;;9.17;51.62;100585.91;10381619;28;21833;-61
2023/03/28 23:30:04;;;;;;;1.63;0.95;;;;;;;9.06;52.34;100573.38;10379910;28;20060;-61
2023/03/28 23:35:06;;;;;;;3.65;0.98;;;;;;;9.10;52.01;100569.56;10379895;28;20059;-60
2023/03/28 23:40:13;;;;;;;2.95;0.88;;;;;;;9.02;52.44;100561.25;10378097;28;20048;-61